sensor_id;sensor_type;location;lat;lon;timestamp;pressure;altitude;pressure_sealevel;temperature;humidity
37200;BME280;23096;50.892;16.746;2022-10-23T00:01:41;99471.69;;;14.38;72.06
37200;BME280;23096;50.892;16.746;2022-10-23T00:04:06;99474.16;;;14.42;72.03
37200;BME280;23096;50.892;16.746;2022-10-23T00:06:37;99481.94;;;14.42;72.00
37200;BME280;23096;50.892;16.746;2022-10-23T00:09:04;99473.75;;;14.41;71.97
37200;BME280;23096;50.892;16.746;2022-10-23T00:11:31;99475.45;;;14.42;71.94
37200;BME280;23096;50.892;16.746;2022-10-23T00:13:59;99475.45;;;14.42;71.90
37200;BME280;23096;50.892;16.746;2022-10-23T00:16:27;99481.88;;;14.43;71.90
37200;BME280;23096;50.892;16.746;2022-10-23T00:18:53;99478.35;;;14.44;71.84
37200;BME280;23096;50.892;16.746;2022-10-23T00:21:19;99475.45;;;14.42;71.77
37200;BME280;23096;50.892;16.746;2022-10-23T00:23:46;99477.64;;;14.41;71.75
37200;BME280;23096;50.892;16.746;2022-10-23T00:26:12;99481.16;;;14.40;71.73
37200;BME280;23096;50.892;16.746;2022-10-23T00:28:46;99481.23;;;14.38;71.71
37200;BME280;23096;50.892;16.746;2022-10-23T00:31:09;99479.06;;;14.37;71.70
37200;BME280;23096;50.892;16.746;2022-10-23T00:33:38;99480.70;;;14.40;71.75
37200;BME280;23096;50.892;16.746;2022-10-23T00:36:05;99479.28;;;14.43;71.79
37200;BME280;23096;50.892;16.746;2022-10-23T00:38:31;99475.63;;;14.47;71.79
37200;BME280;23096;50.892;16.746;2022-10-23T00:40:59;99483.19;;;14.52;71.79
37200;BME280;23096;50.892;16.746;2022-10-23T00:43:26;99481.83;;;14.53;71.73
37200;BME280;23096;50.892;16.746;2022-10-23T00:45:53;99471.40;;;14.55;71.70
37200;BME280;23096;50.892;16.746;2022-10-23T00:48:19;99476.52;;;14.56;71.72
37200;BME280;23096;50.892;16.746;2022-10-23T00:50:46;99471.30;;;14.58;71.65
37200;BME280;23096;50.892;16.746;2022-10-23T00:53:13;99478.55;;;14.60;71.64
37200;BME280;23096;50.892;16.746;2022-10-23T00:55:40;99472.97;;;14.59;71.61
37200;BME280;23096;50.892;16.746;2022-10-23T00:58:14;99477.32;;;14.59;71.54
37200;BME280;23096;50.892;16.746;2022-10-23T01:00:45;99481.23;;;14.57;71.50
37200;BME280;23096;50.892;16.746;2022-10-23T01:03:14;99481.77;;;14.55;71.46
37200;BME280;23096;50.892;16.746;2022-10-23T01:05:49;99490.07;;;14.53;71.41
37200;BME280;23096;50.892;16.746;2022-10-23T01:08:22;99493.13;;;14.52;71.42
37200;BME280;23096;50.892;16.746;2022-10-23T01:11:00;99491.06;;;14.50;71.41
37200;BME280;23096;50.892;16.746;2022-10-23T01:13:32;99496.25;;;14.50;71.41
37200;BME280;23096;50.892;16.746;2022-10-23T01:16:04;99493.25;;;14.49;71.37
37200;BME280;23096;50.892;16.746;2022-10-23T01:21:15;99497.45;;;14.52;71.49
37200;BME280;23096;50.892;16.746;2022-10-23T01:23:55;99496.03;;;14.55;71.50
37200;BME280;23096;50.892;16.746;2022-10-23T01:29:19;99495.50;;;14.57;71.43
37200;BME280;23096;50.892;16.746;2022-10-23T01:31:49;99494.64;;;14.58;71.42
37200;BME280;23096;50.892;16.746;2022-10-23T01:34:19;99492.05;;;14.58;71.37
37200;BME280;23096;50.892;16.746;2022-10-23T01:36:50;99500.19;;;14.59;71.34
37200;BME280;23096;50.892;16.746;2022-10-23T01:39:19;99490.78;;;14.56;71.25
37200;BME280;23096;50.892;16.746;2022-10-23T01:41:52;99489.08;;;14.55;71.25
37200;BME280;23096;50.892;16.746;2022-10-23T01:44:32;99489.55;;;14.55;71.27
37200;BME280;23096;50.892;16.746;2022-10-23T01:47:09;99494.36;;;14.54;71.26
37200;BME280;23096;50.892;16.746;2022-10-23T01:49:38;99498.62;;;14.55;71.22
37200;BME280;23096;50.892;16.746;2022-10-23T01:52:07;99500.91;;;14.52;71.18
37200;BME280;23096;50.892;16.746;2022-10-23T01:54:36;99501.34;;;14.52;71.23
37200;BME280;23096;50.892;16.746;2022-10-23T01:57:06;99504.33;;;14.53;71.27
37200;BME280;23096;50.892;16.746;2022-10-23T01:59:36;99501.34;;;14.52;71.21
37200;BME280;23096;50.892;16.746;2022-10-23T02:02:05;99503.63;;;14.49;71.17
37200;BME280;23096;50.892;16.746;2022-10-23T02:04:35;99501.50;;;14.49;71.22
37200;BME280;23096;50.892;16.746;2022-10-23T02:07:03;99509.27;;;14.49;71.26
37200;BME280;23096;50.892;16.746;2022-10-23T02:09:30;99511.34;;;14.51;71.27
37200;BME280;23096;50.892;16.746;2022-10-23T02:12:06;99513.47;;;14.51;71.22
37200;BME280;23096;50.892;16.746;2022-10-23T02:17:13;99503.87;;;14.53;71.19
37200;BME280;23096;50.892;16.746;2022-10-23T02:19:54;99505.56;;;14.54;71.16
37200;BME280;23096;50.892;16.746;2022-10-23T02:22:26;99503.50;;;14.52;71.08
37200;BME280;23096;50.892;16.746;2022-10-23T02:25:02;99508.75;;;14.51;71.11
37200;BME280;23096;50.892;16.746;2022-10-23T02:30:19;99513.16;;;14.49;70.98
37200;BME280;23096;50.892;16.746;2022-10-23T02:32:51;99511.99;;;14.46;70.97
37200;BME280;23096;50.892;16.746;2022-10-23T02:35:20;99519.36;;;14.45;70.97
37200;BME280;23096;50.892;16.746;2022-10-23T02:37:53;99521.95;;;14.45;70.97
37200;BME280;23096;50.892;16.746;2022-10-23T02:40:22;99505.57;;;14.44;70.96
37200;BME280;23096;50.892;16.746;2022-10-23T02:43:04;99502.98;;;14.44;70.97
37200;BME280;23096;50.892;16.746;2022-10-23T02:45:28;99505.57;;;14.44;70.97
37200;BME280;23096;50.892;16.746;2022-10-23T02:53:19;99501.44;;;14.50;70.92
37200;BME280;23096;50.892;16.746;2022-10-23T02:56:09;99499.27;;;14.50;70.90
37200;BME280;23096;50.892;16.746;2022-10-23T02:58:52;99497.08;;;14.51;70.88
37200;BME280;23096;50.892;16.746;2022-10-23T03:01:28;99497.98;;;14.50;70.88
37200;BME280;23096;50.892;16.746;2022-10-23T03:03:57;99500.20;;;14.49;70.84
37200;BME280;23096;50.892;16.746;2022-10-23T03:06:24;99505.45;;;14.47;70.81
37200;BME280;23096;50.892;16.746;2022-10-23T03:11:22;99509.67;;;14.40;70.71
37200;BME280;23096;50.892;16.746;2022-10-23T03:13:48;99514.06;;;14.37;70.73
37200;BME280;23096;50.892;16.746;2022-10-23T03:16:14;99511.16;;;14.35;70.73
37200;BME280;23096;50.892;16.746;2022-10-23T03:18:42;99518.94;;;14.35;70.78
37200;BME280;23096;50.892;16.746;2022-10-23T03:21:08;99515.88;;;14.35;70.77
37200;BME280;23096;50.892;16.746;2022-10-23T03:23:34;99516.03;;;14.32;70.72
37200;BME280;23096;50.892;16.746;2022-10-23T03:26:01;99515.75;;;14.28;70.71
37200;BME280;23096;50.892;16.746;2022-10-23T03:28:29;99514.98;;;14.26;70.71
37200;BME280;23096;50.892;16.746;2022-10-23T03:30:57;99518.50;;;14.25;70.83
37200;BME280;23096;50.892;16.746;2022-10-23T03:33:24;99518.09;;;14.24;70.76
37200;BME280;23096;50.892;16.746;2022-10-23T03:35:52;99520.75;;;14.23;70.82
37200;BME280;23096;50.892;16.746;2022-10-23T03:38:19;99525.93;;;14.23;70.78
37200;BME280;23096;50.892;16.746;2022-10-23T03:40:45;99525.09;;;14.22;70.81
37200;BME280;23096;50.892;16.746;2022-10-23T03:43:11;99522.56;;;14.21;70.82
37200;BME280;23096;50.892;16.746;2022-10-23T03:45:37;99521.33;;;14.19;70.74
37200;BME280;23096;50.892;16.746;2022-10-23T03:48:04;99518.03;;;14.15;70.82
37200;BME280;23096;50.892;16.746;2022-10-23T03:50:32;99519.66;;;14.18;70.87
37200;BME280;23096;50.892;16.746;2022-10-23T03:52:59;99526.14;;;14.18;70.84
37200;BME280;23096;50.892;16.746;2022-10-23T03:55:25;99522.25;;;14.18;70.84
37200;BME280;23096;50.892;16.746;2022-10-23T03:57:52;99517.59;;;14.16;70.82
37200;BME280;23096;50.892;16.746;2022-10-23T04:00:19;99512.78;;;14.17;70.81
37200;BME280;23096;50.892;16.746;2022-10-23T04:02:45;99513.70;;;14.16;70.81
37200;BME280;23096;50.892;16.746;2022-10-23T04:05:12;99506.83;;;14.15;70.80
37200;BME280;23096;50.892;16.746;2022-10-23T04:07:38;99502.54;;;14.14;70.79
37200;BME280;23096;50.892;16.746;2022-10-23T04:10:05;99501.70;;;14.13;70.78
37200;BME280;23096;50.892;16.746;2022-10-23T04:12:32;99497.87;;;14.12;70.78
37200;BME280;23096;50.892;16.746;2022-10-23T04:14:59;99498.80;;;14.11;70.74
37200;BME280;23096;50.892;16.746;2022-10-23T04:17:25;99495.04;;;14.08;70.78
37200;BME280;23096;50.892;16.746;2022-10-23T04:19:52;99498.92;;;14.08;70.78
37200;BME280;23096;50.892;16.746;2022-10-23T04:22:18;99495.50;;;14.07;70.82
37200;BME280;23096;50.892;16.746;2022-10-23T04:24:47;99499.81;;;14.07;70.83
37200;BME280;23096;50.892;16.746;2022-10-23T04:27:15;99497.23;;;14.07;70.83
37200;BME280;23096;50.892;16.746;2022-10-23T04:29:41;99498.61;;;14.05;70.76
37200;BME280;23096;50.892;16.746;2022-10-23T04:32:08;99494.39;;;14.03;70.75
37200;BME280;23096;50.892;16.746;2022-10-23T04:34:37;99490.50;;;14.03;70.85
37200;BME280;23096;50.892;16.746;2022-10-23T04:37:04;99499.05;;;14.05;70.79
37200;BME280;23096;50.892;16.746;2022-10-23T04:39:29;99495.68;;;14.03;70.78
37200;BME280;23096;50.892;16.746;2022-10-23T04:41:55;99497.44;;;14.02;70.80
37200;BME280;23096;50.892;16.746;2022-10-23T04:44:23;99506.10;;;14.01;70.81
37200;BME280;23096;50.892;16.746;2022-10-23T04:46:50;99504.03;;;13.99;70.76
37200;BME280;23096;50.892;16.746;2022-10-23T04:49:16;99502.43;;;13.96;70.79
37200;BME280;23096;50.892;16.746;2022-10-23T04:51:49;99503.72;;;13.96;70.83
37200;BME280;23096;50.892;16.746;2022-10-23T04:54:35;99509.80;;;13.95;70.85
37200;BME280;23096;50.892;16.746;2022-10-23T04:57:20;99508.44;;;13.97;70.85
37200;BME280;23096;50.892;16.746;2022-10-23T04:59:54;99514.55;;;13.96;70.85
37200;BME280;23096;50.892;16.746;2022-10-23T05:02:20;99521.08;;;13.94;70.81
37200;BME280;23096;50.892;16.746;2022-10-23T05:04:49;99521.66;;;13.91;70.83
37200;BME280;23096;50.892;16.746;2022-10-23T05:07:35;99529.28;;;13.94;70.94
37200;BME280;23096;50.892;16.746;2022-10-23T05:10:08;99514.92;;;13.97;70.96
37200;BME280;23096;50.892;16.746;2022-10-23T05:12:38;99520.04;;;13.98;70.93
37200;BME280;23096;50.892;16.746;2022-10-23T05:15:05;99526.39;;;14.02;70.99
37200;BME280;23096;50.892;16.746;2022-10-23T05:17:32;99527.17;;;14.04;70.99
37200;BME280;23096;50.892;16.746;2022-10-23T05:20:02;99523.66;;;14.05;70.94
37200;BME280;23096;50.892;16.746;2022-10-23T05:22:31;99526.25;;;14.05;70.95
37200;BME280;23096;50.892;16.746;2022-10-23T05:24:59;99530.53;;;14.06;70.94
37200;BME280;23096;50.892;16.746;2022-10-23T05:27:28;99535.06;;;14.00;70.74
37200;BME280;23096;50.892;16.746;2022-10-23T05:29:54;99529.63;;;13.96;70.77
37200;BME280;23096;50.892;16.746;2022-10-23T05:32:23;99536.40;;;13.78;70.25
37200;BME280;23096;50.892;16.746;2022-10-23T05:34:51;99539.52;;;13.54;70.17
37200;BME280;23096;50.892;16.746;2022-10-23T05:37:17;99531.30;;;13.33;69.97
37200;BME280;23096;50.892;16.746;2022-10-23T05:39:44;99528.25;;;13.10;70.07
37200;BME280;23096;50.892;16.746;2022-10-23T05:42:11;99518.14;;;12.92;69.97
37200;BME280;23096;50.892;16.746;2022-10-23T05:44:40;99515.63;;;12.78;70.22
37200;BME280;23096;50.892;16.746;2022-10-23T05:47:10;99516.61;;;12.74;70.35
37200;BME280;23096;50.892;16.746;2022-10-23T05:49:55;99514.88;;;12.63;70.35
37200;BME280;23096;50.892;16.746;2022-10-23T05:52:39;99514.65;;;12.57;70.37
37200;BME280;23096;50.892;16.746;2022-10-23T05:55:07;99511.84;;;12.52;70.52
37200;BME280;23096;50.892;16.746;2022-10-23T05:57:50;99518.02;;;12.48;70.50
37200;BME280;23096;50.892;16.746;2022-10-23T06:00:20;99524.53;;;12.46;70.63
37200;BME280;23096;50.892;16.746;2022-10-23T06:02:48;99532.89;;;12.41;70.45
37200;BME280;23096;50.892;16.746;2022-10-23T06:05:22;99538.02;;;12.29;70.50
37200;BME280;23096;50.892;16.746;2022-10-23T06:07:49;99532.14;;;12.25;70.58
37200;BME280;23096;50.892;16.746;2022-10-23T06:10:16;99543.36;;;12.24;70.72
37200;BME280;23096;50.892;16.746;2022-10-23T06:12:44;99539.98;;;12.22;70.85
37200;BME280;23096;50.892;16.746;2022-10-23T06:15:12;99544.14;;;12.26;70.99
37200;BME280;23096;50.892;16.746;2022-10-23T06:17:54;99548.48;;;12.26;70.87
37200;BME280;23096;50.892;16.746;2022-10-23T06:20:27;99546.77;;;12.25;71.01
37200;BME280;23096;50.892;16.746;2022-10-23T06:22:55;99550.60;;;12.26;71.10
37200;BME280;23096;50.892;16.746;2022-10-23T06:25:23;99553.64;;;12.26;71.03
37200;BME280;23096;50.892;16.746;2022-10-23T06:27:51;99551.56;;;12.24;71.05
37200;BME280;23096;50.892;16.746;2022-10-23T06:30:17;99558.81;;;12.26;71.22
37200;BME280;23096;50.892;16.746;2022-10-23T06:32:44;99560.48;;;12.27;71.26
37200;BME280;23096;50.892;16.746;2022-10-23T06:35:11;99554.43;;;12.28;71.34
37200;BME280;23096;50.892;16.746;2022-10-23T06:37:37;99559.98;;;12.29;71.24
37200;BME280;23096;50.892;16.746;2022-10-23T06:40:05;99562.56;;;12.29;71.32
37200;BME280;23096;50.892;16.746;2022-10-23T06:42:44;99561.27;;;12.29;71.37
37200;BME280;23096;50.892;16.746;2022-10-23T06:45:26;99565.05;;;12.32;71.49
37200;BME280;23096;50.892;16.746;2022-10-23T06:48:14;99564.04;;;12.36;71.56
37200;BME280;23096;50.892;16.746;2022-10-23T06:51:07;99565.19;;;12.41;71.61
37200;BME280;23096;50.892;16.746;2022-10-23T06:53:37;99572.80;;;12.45;71.60
37200;BME280;23096;50.892;16.746;2022-10-23T06:56:06;99567.13;;;12.48;71.70
37200;BME280;23096;50.892;16.746;2022-10-23T06:58:33;99568.23;;;12.52;71.75
37200;BME280;23096;50.892;16.746;2022-10-23T07:01:06;99571.19;;;12.55;71.68
37200;BME280;23096;50.892;16.746;2022-10-23T07:03:33;99568.93;;;12.57;71.71
37200;BME280;23096;50.892;16.746;2022-10-23T07:06:02;99567.64;;;12.57;71.73
37200;BME280;23096;50.892;16.746;2022-10-23T07:08:28;99564.09;;;12.60;71.78
37200;BME280;23096;50.892;16.746;2022-10-23T07:10:55;99558.03;;;12.61;71.81
37200;BME280;23096;50.892;16.746;2022-10-23T07:13:21;99561.77;;;12.65;71.88
37200;BME280;23096;50.892;16.746;2022-10-23T07:15:54;99568.05;;;12.70;71.91
37200;BME280;23096;50.892;16.746;2022-10-23T07:18:22;99570.91;;;12.74;71.93
37200;BME280;23096;50.892;16.746;2022-10-23T07:21:06;99566.42;;;12.79;71.94
37200;BME280;23096;50.892;16.746;2022-10-23T07:23:33;99565.08;;;12.81;71.95
37200;BME280;23096;50.892;16.746;2022-10-23T07:26:06;99565.30;;;12.87;72.03
37200;BME280;23096;50.892;16.746;2022-10-23T07:28:32;99569.92;;;12.90;72.02
37200;BME280;23096;50.892;16.746;2022-10-23T07:30:59;99573.28;;;12.92;72.07
37200;BME280;23096;50.892;16.746;2022-10-23T07:33:27;99576.17;;;12.96;72.11
37200;BME280;23096;50.892;16.746;2022-10-23T07:36:04;99568.23;;;13.01;72.11
37200;BME280;23096;50.892;16.746;2022-10-23T07:38:32;99563.84;;;13.03;72.13
37200;BME280;23096;50.892;16.746;2022-10-23T07:40:58;99568.03;;;13.07;72.12
37200;BME280;23096;50.892;16.746;2022-10-23T07:43:25;99568.76;;;13.11;72.14
37200;BME280;23096;50.892;16.746;2022-10-23T07:45:52;99568.57;;;13.15;72.23
37200;BME280;23096;50.892;16.746;2022-10-23T07:48:20;99572.20;;;13.21;72.25
37200;BME280;23096;50.892;16.746;2022-10-23T07:50:50;99561.80;;;13.23;72.18
37200;BME280;23096;50.892;16.746;2022-10-23T07:53:19;99565.53;;;13.28;72.24
37200;BME280;23096;50.892;16.746;2022-10-23T07:55:52;99564.99;;;13.31;72.25
37200;BME280;23096;50.892;16.746;2022-10-23T07:58:22;99574.32;;;13.35;72.33
37200;BME280;23096;50.892;16.746;2022-10-23T08:00:54;99581.78;;;13.43;72.39
37200;BME280;23096;50.892;16.746;2022-10-23T08:03:25;99575.09;;;13.49;72.42
37200;BME280;23096;50.892;16.746;2022-10-23T08:05:52;99578.67;;;13.57;72.47
37200;BME280;23096;50.892;16.746;2022-10-23T08:08:20;99578.37;;;13.65;72.53
37200;BME280;23096;50.892;16.746;2022-10-23T08:10:48;99577.73;;;13.70;72.49
37200;BME280;23096;50.892;16.746;2022-10-23T08:13:16;99582.66;;;13.76;72.51
37200;BME280;23096;50.892;16.746;2022-10-23T08:15:52;99589.75;;;13.83;72.55
37200;BME280;23096;50.892;16.746;2022-10-23T08:18:37;99582.33;;;13.85;72.55
37200;BME280;23096;50.892;16.746;2022-10-23T08:21:05;99578.96;;;13.93;72.58
37200;BME280;23096;50.892;16.746;2022-10-23T08:23:32;99582.62;;;13.99;72.61
37200;BME280;23096;50.892;16.746;2022-10-23T08:25:58;99576.25;;;14.07;72.69
37200;BME280;23096;50.892;16.746;2022-10-23T08:28:27;99579.78;;;14.16;72.73
37200;BME280;23096;50.892;16.746;2022-10-23T08:30:54;99577.18;;;14.26;72.77
37200;BME280;23096;50.892;16.746;2022-10-23T08:33:20;99583.73;;;14.35;72.80
37200;BME280;23096;50.892;16.746;2022-10-23T08:35:47;99584.58;;;14.46;72.83
37200;BME280;23096;50.892;16.746;2022-10-23T08:38:14;99582.89;;;14.55;72.79
37200;BME280;23096;50.892;16.746;2022-10-23T08:40:43;99582.15;;;14.63;72.75
37200;BME280;23096;50.892;16.746;2022-10-23T08:43:24;99586.59;;;14.70;72.73
37200;BME280;23096;50.892;16.746;2022-10-23T08:48:39;99589.00;;;14.85;72.71
37200;BME280;23096;50.892;16.746;2022-10-23T08:51:43;99590.37;;;14.92;72.72
37200;BME280;23096;50.892;16.746;2022-10-23T08:54:14;99601.27;;;15.00;72.65
37200;BME280;23096;50.892;16.746;2022-10-23T08:56:47;99600.98;;;15.06;72.61
37200;BME280;23096;50.892;16.746;2022-10-23T08:59:39;99604.09;;;15.14;72.61
37200;BME280;23096;50.892;16.746;2022-10-23T09:04:50;99592.94;;;15.31;72.59
37200;BME280;23096;50.892;16.746;2022-10-23T09:07:31;99598.77;;;15.37;72.54
37200;BME280;23096;50.892;16.746;2022-10-23T09:12:58;99594.77;;;15.48;72.45
37200;BME280;23096;50.892;16.746;2022-10-23T09:15:30;99591.48;;;15.53;72.40
37200;BME280;23096;50.892;16.746;2022-10-23T09:18:00;99589.58;;;15.57;72.33
37200;BME280;23096;50.892;16.746;2022-10-23T09:20:31;99592.51;;;15.60;72.27
37200;BME280;23096;50.892;16.746;2022-10-23T09:23:18;99593.58;;;15.64;72.21
37200;BME280;23096;50.892;16.746;2022-10-23T09:25:47;99590.78;;;15.69;72.18
37200;BME280;23096;50.892;16.746;2022-10-23T09:28:21;99585.70;;;15.76;72.15
37200;BME280;23096;50.892;16.746;2022-10-23T09:30:48;99592.75;;;15.83;72.13
37200;BME280;23096;50.892;16.746;2022-10-23T09:33:16;99590.25;;;15.90;72.07
37200;BME280;23096;50.892;16.746;2022-10-23T09:35:51;99593.08;;;15.94;72.03
37200;BME280;23096;50.892;16.746;2022-10-23T09:38:27;99593.70;;;15.99;71.96
37200;BME280;23096;50.892;16.746;2022-10-23T09:40:55;99584.89;;;16.02;71.88
37200;BME280;23096;50.892;16.746;2022-10-23T09:43:33;99588.58;;;16.06;71.85
37200;BME280;23096;50.892;16.746;2022-10-23T09:46:03;99588.34;;;16.11;71.85
37200;BME280;23096;50.892;16.746;2022-10-23T09:48:33;99589.80;;;16.17;71.76
37200;BME280;23096;50.892;16.746;2022-10-23T09:51:03;99588.64;;;16.22;71.70
37200;BME280;23096;50.892;16.746;2022-10-23T09:56:28;99589.34;;;16.35;71.58
37200;BME280;23096;50.892;16.746;2022-10-23T09:59:00;99586.81;;;16.42;71.46
37200;BME280;23096;50.892;16.746;2022-10-23T10:01:50;99595.23;;;16.47;71.34
37200;BME280;23096;50.892;16.746;2022-10-23T10:04:29;99585.98;;;16.50;71.18
37200;BME280;23096;50.892;16.746;2022-10-23T10:06:57;99582.83;;;16.52;71.09
37200;BME280;23096;50.892;16.746;2022-10-23T10:09:25;99582.77;;;16.54;70.97
37200;BME280;23096;50.892;16.746;2022-10-23T10:12:07;99583.30;;;16.52;70.88
37200;BME280;23096;50.892;16.746;2022-10-23T10:14:25;99581.06;;;16.53;70.88
37200;BME280;23096;50.892;16.746;2022-10-23T10:17:23;99577.92;;;16.55;70.87
37200;BME280;23096;50.892;16.746;2022-10-23T10:20:11;99581.96;;;16.60;70.89
37200;BME280;23096;50.892;16.746;2022-10-23T10:22:55;99579.06;;;16.66;70.83
37200;BME280;23096;50.892;16.746;2022-10-23T10:25:36;99576.13;;;16.73;70.79
37200;BME280;23096;50.892;16.746;2022-10-23T10:28:25;99573.74;;;16.77;70.71
37200;BME280;23096;50.892;16.746;2022-10-23T10:31:11;99565.50;;;16.77;70.60
37200;BME280;23096;50.892;16.746;2022-10-23T10:36:32;99556.08;;;16.75;70.46
37200;BME280;23096;50.892;16.746;2022-10-23T10:39:03;99548.45;;;16.72;70.40
37200;BME280;23096;50.892;16.746;2022-10-23T10:52:33;99540.16;;;16.81;70.43
37200;BME280;23096;50.892;16.746;2022-10-23T10:57:38;99536.68;;;16.98;70.44
37200;BME280;23096;50.892;16.746;2022-10-23T11:00:17;99530.22;;;17.05;70.34
37200;BME280;23096;50.892;16.746;2022-10-23T11:02:45;99528.14;;;17.12;70.33
37200;BME280;23096;50.892;16.746;2022-10-23T11:05:30;99518.75;;;17.16;70.27
37200;BME280;23096;50.892;16.746;2022-10-23T11:08:06;99513.52;;;17.25;70.26
37200;BME280;23096;50.892;16.746;2022-10-23T11:10:43;99520.45;;;17.33;70.16
37200;BME280;23096;50.892;16.746;2022-10-23T11:13:45;99521.56;;;17.36;70.08
37200;BME280;23096;50.892;16.746;2022-10-23T11:15:50;99528.11;;;17.43;70.03
37200;BME280;23096;50.892;16.746;2022-10-23T11:18:21;99526.41;;;17.51;70.02
37200;BME280;23096;50.892;16.746;2022-10-23T11:31:28;99518.67;;;17.80;69.55
37200;BME280;23096;50.892;16.746;2022-10-23T11:37:03;99514.20;;;17.82;69.11
37200;BME280;23096;50.892;16.746;2022-10-23T11:39:30;99499.19;;;17.87;69.07
37200;BME280;23096;50.892;16.746;2022-10-23T11:44:43;99499.02;;;17.90;68.67
37200;BME280;23096;50.892;16.746;2022-10-23T11:52:39;99497.63;;;17.92;68.44
37200;BME280;23096;50.892;16.746;2022-10-23T11:55:18;99491.19;;;17.90;68.25
37200;BME280;23096;50.892;16.746;2022-10-23T12:00:34;99487.94;;;17.94;68.11
37200;BME280;23096;50.892;16.746;2022-10-23T12:03:03;99481.61;;;17.98;68.05
37200;BME280;23096;50.892;16.746;2022-10-23T12:05:31;99479.23;;;18.02;67.94
37200;BME280;23096;50.892;16.746;2022-10-23T12:08:06;99473.72;;;18.07;67.92
37200;BME280;23096;50.892;16.746;2022-10-23T12:10:35;99458.38;;;18.09;67.74
37200;BME280;23096;50.892;16.746;2022-10-23T12:16:18;99446.63;;;18.16;67.61
37200;BME280;23096;50.892;16.746;2022-10-23T12:18:52;99435.84;;;18.15;67.43
37200;BME280;23096;50.892;16.746;2022-10-23T12:21:17;99438.92;;;18.22;67.36
37200;BME280;23096;50.892;16.746;2022-10-23T12:26:40;99440.97;;;18.24;67.16
37200;BME280;23096;50.892;16.746;2022-10-23T12:40:22;99425.59;;;18.41;66.73
37200;BME280;23096;50.892;16.746;2022-10-23T12:42:52;99415.33;;;18.45;66.66
37200;BME280;23096;50.892;16.746;2022-10-23T12:45:21;99417.75;;;18.48;66.50
37200;BME280;23096;50.892;16.746;2022-10-23T12:47:48;99417.58;;;18.51;66.41
37200;BME280;23096;50.892;16.746;2022-10-23T12:50:25;99417.92;;;18.52;66.31
37200;BME280;23096;50.892;16.746;2022-10-23T12:52:54;99412.14;;;18.54;66.15
37200;BME280;23096;50.892;16.746;2022-10-23T12:55:22;99417.66;;;18.57;66.12
37200;BME280;23096;50.892;16.746;2022-10-23T12:57:49;99410.83;;;18.62;66.03
37200;BME280;23096;50.892;16.746;2022-10-23T13:00:20;99405.52;;;18.63;65.93
37200;BME280;23096;50.892;16.746;2022-10-23T13:02:45;99405.52;;;18.63;65.78
37200;BME280;23096;50.892;16.746;2022-10-23T13:05:14;99399.30;;;18.58;65.64
37200;BME280;23096;50.892;16.746;2022-10-23T13:07:42;99394.74;;;18.55;65.51
37200;BME280;23096;50.892;16.746;2022-10-23T13:10:14;99394.00;;;18.53;65.46
37200;BME280;23096;50.892;16.746;2022-10-23T13:12:49;99390.18;;;18.51;65.41
37200;BME280;23096;50.892;16.746;2022-10-23T13:15:19;99392.88;;;18.50;65.34
37200;BME280;23096;50.892;16.746;2022-10-23T13:20:27;99378.63;;;18.41;65.15
37200;BME280;23096;50.892;16.746;2022-10-23T13:22:56;99378.46;;;18.37;65.12
37200;BME280;23096;50.892;16.746;2022-10-23T13:25:26;99377.91;;;18.32;65.09
37200;BME280;23096;50.892;16.746;2022-10-23T13:30:35;99381.82;;;18.25;65.04
37200;BME280;23096;50.892;16.746;2022-10-23T13:33:18;99384.43;;;18.17;65.02
37200;BME280;23096;50.892;16.746;2022-10-23T13:35:57;99383.87;;;18.12;65.02
37200;BME280;23096;50.892;16.746;2022-10-23T13:38:28;99378.09;;;18.07;65.01
37200;BME280;23096;50.892;16.746;2022-10-23T13:40:58;99378.47;;;18.01;65.00
37200;BME280;23096;50.892;16.746;2022-10-23T13:43:26;99380.90;;;17.97;65.01
37200;BME280;23096;50.892;16.746;2022-10-23T13:45:52;99392.42;;;17.93;65.01
37200;BME280;23096;50.892;16.746;2022-10-23T13:48:19;99383.86;;;17.91;65.02
37200;BME280;23096;50.892;16.746;2022-10-23T13:50:45;99379.38;;;17.86;64.94
37200;BME280;23096;50.892;16.746;2022-10-23T13:53:12;99375.25;;;17.74;64.91
37200;BME280;23096;50.892;16.746;2022-10-23T13:55:39;99374.59;;;17.71;64.96
37200;BME280;23096;50.892;16.746;2022-10-23T13:58:08;99376.45;;;17.69;65.02
37200;BME280;23096;50.892;16.746;2022-10-23T14:00:35;99377.09;;;17.65;64.94
37200;BME280;23096;50.892;16.746;2022-10-23T14:03:02;99380.25;;;17.56;64.97
37200;BME280;23096;50.892;16.746;2022-10-23T14:05:28;99380.14;;;17.50;65.04
37200;BME280;23096;50.892;16.746;2022-10-23T14:07:55;99378.27;;;17.45;65.04
37200;BME280;23096;50.892;16.746;2022-10-23T14:10:21;99372.48;;;17.40;65.18
37200;BME280;23096;50.892;16.746;2022-10-23T14:12:48;99368.00;;;17.35;65.24
37200;BME280;23096;50.892;16.746;2022-10-23T14:15:15;99368.55;;;17.33;65.27
37200;BME280;23096;50.892;16.746;2022-10-23T14:17:42;99372.75;;;17.28;65.32
37200;BME280;23096;50.892;16.746;2022-10-23T14:20:08;99362.22;;;17.22;65.35
37200;BME280;23096;50.892;16.746;2022-10-23T14:22:34;99373.72;;;17.18;65.41
37200;BME280;23096;50.892;16.746;2022-10-23T14:25:01;99373.44;;;17.16;65.55
37200;BME280;23096;50.892;16.746;2022-10-23T14:27:27;99374.91;;;17.13;65.54
37200;BME280;23096;50.892;16.746;2022-10-23T14:29:54;99369.98;;;17.08;65.65
37200;BME280;23096;50.892;16.746;2022-10-23T14:32:20;99364.38;;;17.07;65.77
37200;BME280;23096;50.892;16.746;2022-10-23T14:34:52;99369.01;;;17.02;65.75
37200;BME280;23096;50.892;16.746;2022-10-23T14:37:15;99364.16;;;16.96;65.82
37200;BME280;23096;50.892;16.746;2022-10-23T14:39:42;99359.31;;;16.90;65.90
37200;BME280;23096;50.892;16.746;2022-10-23T14:42:08;99358.25;;;16.85;65.95